Main page
METAR-TAF:

METAR-TAF

Airports :

Waddington, England

RAF Waddington

latitude: 53-10N, longitude: 000-31W, elevation: 68 m

Current weather observation

The report was made 1 hour and 3 minutes ago, at 20:50 UTC
Wind 7 kt from the Southeast
Temperature 8°C
Humidity 71%
Pressure 1016 hPa
Visibility 10 km or more
Scattered clouds at a height of 3500 ft
Broken clouds at a height of 6000 ft

METAR: EGXW 282050Z 13007KT 9999 SCT035 BKN060 08/03 Q1016 BLU

Time: 22:53 (21:53 UTC)

Forecast

The report was made 2 hours and 14 minutes ago, at 19:39 UTC
Forecast valid from 28 at 21 UTC to 29 at 15 UTC
Wind 6 kt from the South/Southeast
Visibility 10 km or more
Broken clouds at a height of 3500 ft
Probability 30% :
Temporary
from 29 at 02 UTC to 29 at 06 UTC
Scattered clouds at a height of 2000 ft

TAF: EGXW 281939Z 2821/2915 15006KT 9999 BKN035 PROB30 TEMPO 2902/2906 SCT020

Weather observations and forecasts of more than 4000 airports (METAR and TAF reports).

The available stations are represented by yellow and red dots on the map.

Hover mouse over dot to see the name of the station.

Then click to see weather observations and forecasts.

To change the map : click on the green buttons with a black cross to zoom in, on the green button with a dash to zoom out, or on the green arrows for adjacent maps.


METAR-TAF: